Metar z połowy godziny Komunikat METAR ze strony awiacja.imgw.pl Metar G30 EPLK METAR EPLK 170900Z 14007KT 110V180 9999 FEW040 25/16 Q1018 RMK 245 059 2/2=